sensor_id;sensor_type;location;lat;lon;timestamp;P1;durP1;ratioP1;P2;durP2;ratioP2
12425;SDS011;6277;49.824;9.562;2023-04-25T00:01:20;3.33;;;2.30;;
12425;SDS011;6277;49.824;9.562;2023-04-25T00:03:46;3.70;;;2.53;;
12425;SDS011;6277;49.824;9.562;2023-04-25T00:06:12;2.17;;;1.95;;
12425;SDS011;6277;49.824;9.562;2023-04-25T00:08:38;2.75;;;2.15;;
12425;SDS011;6277;49.824;9.562;2023-04-25T00:11:04;3.50;;;2.30;;
12425;SDS011;6277;49.824;9.562;2023-04-25T00:13:30;3.38;;;2.03;;
12425;SDS011;6277;49.824;9.562;2023-04-25T00:15:55;2.47;;;1.90;;
12425;SDS011;6277;49.824;9.562;2023-04-25T00:18:21;2.55;;;2.10;;
12425;SDS011;6277;49.824;9.562;2023-04-25T00:20:47;2.08;;;1.80;;
12425;SDS011;6277;49.824;9.562;2023-04-25T00:23:13;2.70;;;1.98;;
12425;SDS011;6277;49.824;9.562;2023-04-25T00:25:45;2.45;;;2.00;;
12425;SDS011;6277;49.824;9.562;2023-04-25T00:28:12;2.22;;;2.03;;
12425;SDS011;6277;49.824;9.562;2023-04-25T00:30:39;1.77;;;1.65;;
12425;SDS011;6277;49.824;9.562;2023-04-25T00:33:05;2.60;;;2.10;;
12425;SDS011;6277;49.824;9.562;2023-04-25T00:35:31;2.72;;;2.10;;
12425;SDS011;6277;49.824;9.562;2023-04-25T00:37:57;2.80;;;2.20;;
12425;SDS011;6277;49.824;9.562;2023-04-25T00:40:22;2.53;;;1.75;;
12425;SDS011;6277;49.824;9.562;2023-04-25T00:42:48;2.05;;;1.80;;
12425;SDS011;6277;49.824;9.562;2023-04-25T00:45:16;1.75;;;1.42;;
12425;SDS011;6277;49.824;9.562;2023-04-25T00:47:42;2.63;;;1.85;;
12425;SDS011;6277;49.824;9.562;2023-04-25T00:50:08;2.22;;;1.70;;
12425;SDS011;6277;49.824;9.562;2023-04-25T00:52:34;2.47;;;1.90;;
12425;SDS011;6277;49.824;9.562;2023-04-25T00:55:01;2.08;;;1.50;;
12425;SDS011;6277;49.824;9.562;2023-04-25T00:57:26;1.70;;;1.50;;
12425;SDS011;6277;49.824;9.562;2023-04-25T00:59:53;1.75;;;1.63;;
12425;SDS011;6277;49.824;9.562;2023-04-25T01:02:19;2.13;;;1.83;;
12425;SDS011;6277;49.824;9.562;2023-04-25T01:04:45;2.47;;;1.45;;
12425;SDS011;6277;49.824;9.562;2023-04-25T01:07:12;1.58;;;1.45;;
12425;SDS011;6277;49.824;9.562;2023-04-25T01:09:38;2.17;;;1.50;;
12425;SDS011;6277;49.824;9.562;2023-04-25T01:12:03;2.17;;;1.45;;
12425;SDS011;6277;49.824;9.562;2023-04-25T01:14:29;1.67;;;1.42;;
12425;SDS011;6277;49.824;9.562;2023-04-25T01:16:55;2.50;;;1.40;;
12425;SDS011;6277;49.824;9.562;2023-04-25T01:19:20;1.58;;;1.30;;
12425;SDS011;6277;49.824;9.562;2023-04-25T01:21:46;1.35;;;1.25;;
12425;SDS011;6277;49.824;9.562;2023-04-25T01:24:12;1.52;;;1.38;;
12425;SDS011;6277;49.824;9.562;2023-04-25T01:26:38;1.30;;;1.20;;
12425;SDS011;6277;49.824;9.562;2023-04-25T01:29:09;1.60;;;1.20;;
12425;SDS011;6277;49.824;9.562;2023-04-25T01:31:35;1.25;;;1.10;;
12425;SDS011;6277;49.824;9.562;2023-04-25T01:34:01;1.30;;;1.10;;
12425;SDS011;6277;49.824;9.562;2023-04-25T01:36:27;1.50;;;1.30;;
12425;SDS011;6277;49.824;9.562;2023-04-25T01:38:53;0.82;;;0.82;;
12425;SDS011;6277;49.824;9.562;2023-04-25T01:41:20;1.17;;;1.05;;
12425;SDS011;6277;49.824;9.562;2023-04-25T01:43:48;2.35;;;0.88;;
12425;SDS011;6277;49.824;9.562;2023-04-25T01:46:13;1.23;;;0.90;;
12425;SDS011;6277;49.824;9.562;2023-04-25T01:48:39;1.35;;;0.95;;
12425;SDS011;6277;49.824;9.562;2023-04-25T01:51:05;1.17;;;0.88;;
12425;SDS011;6277;49.824;9.562;2023-04-25T01:53:30;1.10;;;0.98;;
12425;SDS011;6277;49.824;9.562;2023-04-25T01:55:56;1.77;;;0.90;;
12425;SDS011;6277;49.824;9.562;2023-04-25T01:58:22;1.35;;;0.80;;
12425;SDS011;6277;49.824;9.562;2023-04-25T02:00:47;1.52;;;0.90;;
12425;SDS011;6277;49.824;9.562;2023-04-25T02:03:13;1.25;;;0.75;;
12425;SDS011;6277;49.824;9.562;2023-04-25T02:05:38;2.25;;;1.20;;
12425;SDS011;6277;49.824;9.562;2023-04-25T02:08:05;1.13;;;1.02;;
12425;SDS011;6277;49.824;9.562;2023-04-25T02:10:32;1.20;;;1.10;;
12425;SDS011;6277;49.824;9.562;2023-04-25T02:12:58;1.20;;;1.08;;
12425;SDS011;6277;49.824;9.562;2023-04-25T02:15:23;1.23;;;1.00;;
12425;SDS011;6277;49.824;9.562;2023-04-25T02:17:49;1.23;;;1.10;;
12425;SDS011;6277;49.824;9.562;2023-04-25T02:20:15;1.83;;;1.25;;
12425;SDS011;6277;49.824;9.562;2023-04-25T02:22:44;1.33;;;1.20;;
12425;SDS011;6277;49.824;9.562;2023-04-25T02:25:10;1.85;;;1.30;;
12425;SDS011;6277;49.824;9.562;2023-04-25T02:27:36;1.83;;;1.20;;
12425;SDS011;6277;49.824;9.562;2023-04-25T02:30:02;1.80;;;1.30;;
12425;SDS011;6277;49.824;9.562;2023-04-25T02:32:29;1.85;;;1.35;;
12425;SDS011;6277;49.824;9.562;2023-04-25T02:34:55;1.48;;;1.33;;
12425;SDS011;6277;49.824;9.562;2023-04-25T02:37:23;1.88;;;1.40;;
12425;SDS011;6277;49.824;9.562;2023-04-25T02:39:49;1.90;;;1.50;;
12425;SDS011;6277;49.824;9.562;2023-04-25T02:42:15;1.85;;;1.50;;
12425;SDS011;6277;49.824;9.562;2023-04-25T02:44:40;1.95;;;1.75;;
12425;SDS011;6277;49.824;9.562;2023-04-25T02:47:06;1.70;;;1.60;;
12425;SDS011;6277;49.824;9.562;2023-04-25T02:49:31;2.25;;;1.70;;
12425;SDS011;6277;49.824;9.562;2023-04-25T02:51:57;2.22;;;1.77;;
12425;SDS011;6277;49.824;9.562;2023-04-25T02:54:22;2.28;;;1.88;;
12425;SDS011;6277;49.824;9.562;2023-04-25T02:56:48;2.20;;;1.98;;
12425;SDS011;6277;49.824;9.562;2023-04-25T02:59:13;3.22;;;1.90;;
12425;SDS011;6277;49.824;9.562;2023-04-25T03:01:39;2.47;;;1.90;;
12425;SDS011;6277;49.824;9.562;2023-04-25T03:04:05;2.20;;;1.60;;
12425;SDS011;6277;49.824;9.562;2023-04-25T03:06:30;3.70;;;2.10;;
12425;SDS011;6277;49.824;9.562;2023-04-25T03:08:56;3.22;;;2.20;;
12425;SDS011;6277;49.824;9.562;2023-04-25T03:11:21;2.95;;;2.05;;
12425;SDS011;6277;49.824;9.562;2023-04-25T03:13:47;2.33;;;1.90;;
12425;SDS011;6277;49.824;9.562;2023-04-25T03:16:12;2.67;;;2.30;;
12425;SDS011;6277;49.824;9.562;2023-04-25T03:18:38;1.98;;;1.77;;
12425;SDS011;6277;49.824;9.562;2023-04-25T03:21:03;4.25;;;2.08;;
12425;SDS011;6277;49.824;9.562;2023-04-25T03:23:29;3.13;;;2.40;;
12425;SDS011;6277;49.824;9.562;2023-04-25T03:25:55;3.13;;;2.47;;
12425;SDS011;6277;49.824;9.562;2023-04-25T03:28:21;3.13;;;2.70;;
12425;SDS011;6277;49.824;9.562;2023-04-25T03:30:46;3.35;;;2.55;;
12425;SDS011;6277;49.824;9.562;2023-04-25T03:33:12;3.50;;;2.90;;
12425;SDS011;6277;49.824;9.562;2023-04-25T03:35:38;3.15;;;2.75;;
12425;SDS011;6277;49.824;9.562;2023-04-25T03:38:03;3.15;;;2.67;;
12425;SDS011;6277;49.824;9.562;2023-04-25T03:40:28;3.83;;;3.10;;
12425;SDS011;6277;49.824;9.562;2023-04-25T03:42:54;2.78;;;2.40;;
12425;SDS011;6277;49.824;9.562;2023-04-25T03:45:20;3.30;;;2.70;;
12425;SDS011;6277;49.824;9.562;2023-04-25T03:47:45;3.00;;;2.70;;
12425;SDS011;6277;49.824;9.562;2023-04-25T03:50:11;3.65;;;2.47;;
12425;SDS011;6277;49.824;9.562;2023-04-25T03:52:36;3.00;;;2.53;;
12425;SDS011;6277;49.824;9.562;2023-04-25T03:55:02;2.42;;;2.22;;
12425;SDS011;6277;49.824;9.562;2023-04-25T03:57:29;2.40;;;2.20;;
12425;SDS011;6277;49.824;9.562;2023-04-25T03:59:55;3.65;;;2.90;;
12425;SDS011;6277;49.824;9.562;2023-04-25T04:02:20;3.13;;;2.38;;
12425;SDS011;6277;49.824;9.562;2023-04-25T04:04:46;2.92;;;2.50;;
12425;SDS011;6277;49.824;9.562;2023-04-25T04:07:11;2.65;;;2.25;;
12425;SDS011;6277;49.824;9.562;2023-04-25T04:09:37;4.03;;;2.63;;
12425;SDS011;6277;49.824;9.562;2023-04-25T04:12:02;2.70;;;2.45;;
12425;SDS011;6277;49.824;9.562;2023-04-25T04:14:28;3.38;;;2.55;;
12425;SDS011;6277;49.824;9.562;2023-04-25T04:16:53;2.88;;;2.65;;
12425;SDS011;6277;49.824;9.562;2023-04-25T04:19:19;2.88;;;2.30;;
12425;SDS011;6277;49.824;9.562;2023-04-25T04:21:45;3.00;;;2.60;;
12425;SDS011;6277;49.824;9.562;2023-04-25T04:24:10;4.03;;;2.88;;
12425;SDS011;6277;49.824;9.562;2023-04-25T04:26:36;3.20;;;2.80;;
12425;SDS011;6277;49.824;9.562;2023-04-25T04:29:02;3.80;;;3.10;;
12425;SDS011;6277;49.824;9.562;2023-04-25T04:31:27;3.53;;;2.90;;
12425;SDS011;6277;49.824;9.562;2023-04-25T04:33:55;3.30;;;3.00;;
12425;SDS011;6277;49.824;9.562;2023-04-25T04:36:20;4.63;;;3.45;;
12425;SDS011;6277;49.824;9.562;2023-04-25T04:38:47;4.28;;;3.45;;
12425;SDS011;6277;49.824;9.562;2023-04-25T04:41:13;4.40;;;3.30;;
12425;SDS011;6277;49.824;9.562;2023-04-25T04:43:39;4.78;;;3.45;;
12425;SDS011;6277;49.824;9.562;2023-04-25T04:46:05;4.47;;;3.55;;
12425;SDS011;6277;49.824;9.562;2023-04-25T04:48:33;3.85;;;3.42;;
12425;SDS011;6277;49.824;9.562;2023-04-25T04:50:59;4.15;;;3.58;;
12425;SDS011;6277;49.824;9.562;2023-04-25T04:53:25;5.38;;;3.40;;
12425;SDS011;6277;49.824;9.562;2023-04-25T04:55:50;4.03;;;3.50;;
12425;SDS011;6277;49.824;9.562;2023-04-25T04:58:16;3.90;;;3.50;;
12425;SDS011;6277;49.824;9.562;2023-04-25T05:00:42;3.65;;;3.33;;
12425;SDS011;6277;49.824;9.562;2023-04-25T05:03:07;4.75;;;3.85;;
12425;SDS011;6277;49.824;9.562;2023-04-25T05:05:33;4.55;;;3.78;;
12425;SDS011;6277;49.824;9.562;2023-04-25T05:07:58;5.10;;;4.03;;
12425;SDS011;6277;49.824;9.562;2023-04-25T05:10:25;4.20;;;3.80;;
12425;SDS011;6277;49.824;9.562;2023-04-25T05:12:50;5.35;;;4.30;;
12425;SDS011;6277;49.824;9.562;2023-04-25T05:15:16;4.47;;;4.05;;
12425;SDS011;6277;49.824;9.562;2023-04-25T05:17:41;5.53;;;4.20;;
12425;SDS011;6277;49.824;9.562;2023-04-25T05:20:07;5.68;;;4.38;;
12425;SDS011;6277;49.824;9.562;2023-04-25T05:22:36;5.40;;;4.25;;
12425;SDS011;6277;49.824;9.562;2023-04-25T05:25:02;5.30;;;4.45;;
12425;SDS011;6277;49.824;9.562;2023-04-25T05:27:28;6.22;;;4.85;;
12425;SDS011;6277;49.824;9.562;2023-04-25T05:29:54;8.02;;;4.50;;
12425;SDS011;6277;49.824;9.562;2023-04-25T05:32:19;5.38;;;4.05;;
12425;SDS011;6277;49.824;9.562;2023-04-25T05:34:45;5.43;;;4.53;;
12425;SDS011;6277;49.824;9.562;2023-04-25T05:37:10;4.68;;;4.18;;
12425;SDS011;6277;49.824;9.562;2023-04-25T05:39:36;5.07;;;4.38;;
12425;SDS011;6277;49.824;9.562;2023-04-25T05:42:01;6.55;;;4.78;;
12425;SDS011;6277;49.824;9.562;2023-04-25T05:44:28;5.65;;;4.75;;
12425;SDS011;6277;49.824;9.562;2023-04-25T05:46:55;6.55;;;4.75;;
12425;SDS011;6277;49.824;9.562;2023-04-25T05:49:20;5.72;;;4.68;;
12425;SDS011;6277;49.824;9.562;2023-04-25T05:51:46;5.78;;;4.80;;
12425;SDS011;6277;49.824;9.562;2023-04-25T05:54:11;5.65;;;4.90;;
12425;SDS011;6277;49.824;9.562;2023-04-25T05:56:37;7.55;;;5.57;;
12425;SDS011;6277;49.824;9.562;2023-04-25T05:59:02;5.95;;;4.95;;
12425;SDS011;6277;49.824;9.562;2023-04-25T06:01:28;8.02;;;4.95;;
12425;SDS011;6277;49.824;9.562;2023-04-25T06:03:53;5.38;;;4.88;;
12425;SDS011;6277;49.824;9.562;2023-04-25T06:06:19;6.72;;;5.00;;
12425;SDS011;6277;49.824;9.562;2023-04-25T06:08:45;6.82;;;4.95;;
12425;SDS011;6277;49.824;9.562;2023-04-25T06:11:10;7.47;;;5.38;;
12425;SDS011;6277;49.824;9.562;2023-04-25T06:13:36;7.47;;;4.90;;
12425;SDS011;6277;49.824;9.562;2023-04-25T06:16:02;7.50;;;5.05;;
12425;SDS011;6277;49.824;9.562;2023-04-25T06:18:27;6.22;;;4.72;;
12425;SDS011;6277;49.824;9.562;2023-04-25T06:20:53;5.68;;;4.50;;
12425;SDS011;6277;49.824;9.562;2023-04-25T06:23:18;7.30;;;4.38;;
12425;SDS011;6277;49.824;9.562;2023-04-25T06:25:44;6.88;;;3.92;;
12425;SDS011;6277;49.824;9.562;2023-04-25T06:28:09;8.52;;;4.28;;
12425;SDS011;6277;49.824;9.562;2023-04-25T06:30:35;6.65;;;4.03;;
12425;SDS011;6277;49.824;9.562;2023-04-25T06:33:00;6.88;;;4.32;;
12425;SDS011;6277;49.824;9.562;2023-04-25T06:35:26;6.50;;;4.25;;
12425;SDS011;6277;49.824;9.562;2023-04-25T06:37:51;6.10;;;4.20;;
12425;SDS011;6277;49.824;9.562;2023-04-25T06:40:17;6.45;;;4.00;;
12425;SDS011;6277;49.824;9.562;2023-04-25T06:42:42;7.00;;;4.07;;
12425;SDS011;6277;49.824;9.562;2023-04-25T06:45:08;7.70;;;3.78;;
12425;SDS011;6277;49.824;9.562;2023-04-25T06:47:34;5.20;;;3.22;;
12425;SDS011;6277;49.824;9.562;2023-04-25T06:50:00;5.38;;;3.55;;
12425;SDS011;6277;49.824;9.562;2023-04-25T06:52:25;4.57;;;3.67;;
12425;SDS011;6277;49.824;9.562;2023-04-25T06:54:51;6.80;;;3.83;;
12425;SDS011;6277;49.824;9.562;2023-04-25T06:57:16;6.55;;;3.58;;
12425;SDS011;6277;49.824;9.562;2023-04-25T06:59:42;5.65;;;3.30;;
12425;SDS011;6277;49.824;9.562;2023-04-25T07:02:07;5.45;;;3.47;;
12425;SDS011;6277;49.824;9.562;2023-04-25T07:04:33;6.18;;;3.55;;
12425;SDS011;6277;49.824;9.562;2023-04-25T07:06:59;6.70;;;3.53;;
12425;SDS011;6277;49.824;9.562;2023-04-25T07:09:25;7.22;;;3.63;;
12425;SDS011;6277;49.824;9.562;2023-04-25T07:11:51;6.40;;;3.53;;
12425;SDS011;6277;49.824;9.562;2023-04-25T07:14:16;5.55;;;3.20;;
12425;SDS011;6277;49.824;9.562;2023-04-25T07:16:42;4.82;;;2.90;;
12425;SDS011;6277;49.824;9.562;2023-04-25T07:19:08;5.07;;;3.03;;
12425;SDS011;6277;49.824;9.562;2023-04-25T07:21:33;3.67;;;2.60;;
12425;SDS011;6277;49.824;9.562;2023-04-25T07:23:59;5.82;;;2.95;;
12425;SDS011;6277;49.824;9.562;2023-04-25T07:26:24;4.72;;;2.20;;
12425;SDS011;6277;49.824;9.562;2023-04-25T07:28:50;5.53;;;2.28;;
12425;SDS011;6277;49.824;9.562;2023-04-25T07:31:16;3.85;;;2.40;;
12425;SDS011;6277;49.824;9.562;2023-04-25T07:33:43;4.25;;;2.10;;
12425;SDS011;6277;49.824;9.562;2023-04-25T07:36:10;4.72;;;2.00;;
12425;SDS011;6277;49.824;9.562;2023-04-25T07:38:35;3.65;;;1.88;;
12425;SDS011;6277;49.824;9.562;2023-04-25T07:41:01;4.85;;;1.60;;
12425;SDS011;6277;49.824;9.562;2023-04-25T07:43:26;2.92;;;1.70;;
12425;SDS011;6277;49.824;9.562;2023-04-25T07:45:52;3.42;;;1.63;;
12425;SDS011;6277;49.824;9.562;2023-04-25T07:48:18;3.90;;;1.90;;
12425;SDS011;6277;49.824;9.562;2023-04-25T07:50:44;2.13;;;1.33;;
12425;SDS011;6277;49.824;9.562;2023-04-25T07:53:10;3.17;;;1.63;;
12425;SDS011;6277;49.824;9.562;2023-04-25T07:55:35;2.88;;;1.40;;
12425;SDS011;6277;49.824;9.562;2023-04-25T07:58:04;3.42;;;1.40;;
12425;SDS011;6277;49.824;9.562;2023-04-25T08:00:33;2.30;;;1.52;;
12425;SDS011;6277;49.824;9.562;2023-04-25T08:02:58;3.05;;;1.40;;
12425;SDS011;6277;49.824;9.562;2023-04-25T08:05:24;4.25;;;1.52;;
12425;SDS011;6277;49.824;9.562;2023-04-25T08:07:49;1.95;;;1.40;;
12425;SDS011;6277;49.824;9.562;2023-04-25T08:10:15;2.63;;;1.60;;
12425;SDS011;6277;49.824;9.562;2023-04-25T08:12:41;2.38;;;1.38;;
12425;SDS011;6277;49.824;9.562;2023-04-25T08:15:06;3.03;;;1.60;;
12425;SDS011;6277;49.824;9.562;2023-04-25T08:17:32;3.30;;;1.70;;
12425;SDS011;6277;49.824;9.562;2023-04-25T08:19:58;2.97;;;1.77;;
12425;SDS011;6277;49.824;9.562;2023-04-25T08:22:23;3.15;;;1.80;;
12425;SDS011;6277;49.824;9.562;2023-04-25T08:24:49;4.85;;;3.20;;
12425;SDS011;6277;49.824;9.562;2023-04-25T08:27:14;3.60;;;2.50;;
12425;SDS011;6277;49.824;9.562;2023-04-25T08:29:41;4.50;;;2.10;;
12425;SDS011;6277;49.824;9.562;2023-04-25T08:32:06;2.60;;;1.67;;
12425;SDS011;6277;49.824;9.562;2023-04-25T08:34:32;2.08;;;1.50;;
12425;SDS011;6277;49.824;9.562;2023-04-25T08:36:57;3.20;;;1.65;;
12425;SDS011;6277;49.824;9.562;2023-04-25T08:39:23;2.38;;;1.80;;
12425;SDS011;6277;49.824;9.562;2023-04-25T08:41:49;2.28;;;1.60;;
12425;SDS011;6277;49.824;9.562;2023-04-25T08:44:15;1.92;;;1.45;;
12425;SDS011;6277;49.824;9.562;2023-04-25T08:46:41;2.45;;;1.40;;
12425;SDS011;6277;49.824;9.562;2023-04-25T08:49:08;2.95;;;1.33;;
12425;SDS011;6277;49.824;9.562;2023-04-25T08:51:34;3.13;;;1.60;;
12425;SDS011;6277;49.824;9.562;2023-04-25T08:54:09;2.80;;;1.40;;
12425;SDS011;6277;49.824;9.562;2023-04-25T08:56:40;4.07;;;1.95;;
12425;SDS011;6277;49.824;9.562;2023-04-25T08:59:09;2.20;;;1.60;;
12425;SDS011;6277;49.824;9.562;2023-04-25T09:01:35;2.97;;;1.45;;
12425;SDS011;6277;49.824;9.562;2023-04-25T09:04:01;2.88;;;1.40;;
12425;SDS011;6277;49.824;9.562;2023-04-25T09:06:27;4.82;;;1.80;;
12425;SDS011;6277;49.824;9.562;2023-04-25T09:08:54;4.70;;;1.80;;
12425;SDS011;6277;49.824;9.562;2023-04-25T09:11:19;2.67;;;1.60;;
12425;SDS011;6277;49.824;9.562;2023-04-25T09:13:45;2.88;;;1.70;;
12425;SDS011;6277;49.824;9.562;2023-04-25T09:16:10;1.80;;;1.35;;
12425;SDS011;6277;49.824;9.562;2023-04-25T09:18:36;3.40;;;1.65;;
12425;SDS011;6277;49.824;9.562;2023-04-25T09:21:09;3.47;;;1.60;;
12425;SDS011;6277;49.824;9.562;2023-04-25T09:26:06;2.03;;;1.20;;
12425;SDS011;6277;49.824;9.562;2023-04-25T09:28:32;3.33;;;1.95;;
12425;SDS011;6277;49.824;9.562;2023-04-25T09:31:00;3.47;;;1.80;;
12425;SDS011;6277;49.824;9.562;2023-04-25T09:33:29;3.10;;;1.70;;
12425;SDS011;6277;49.824;9.562;2023-04-25T09:36:07;2.70;;;1.73;;
12425;SDS011;6277;49.824;9.562;2023-04-25T09:38:41;2.10;;;1.75;;
12425;SDS011;6277;49.824;9.562;2023-04-25T09:41:09;2.50;;;1.75;;
12425;SDS011;6277;49.824;9.562;2023-04-25T09:43:35;3.78;;;1.77;;
12425;SDS011;6277;49.824;9.562;2023-04-25T09:46:01;1.88;;;1.60;;
12425;SDS011;6277;49.824;9.562;2023-04-25T09:48:27;3.53;;;1.67;;
12425;SDS011;6277;49.824;9.562;2023-04-25T09:53:42;3.58;;;1.60;;
12425;SDS011;6277;49.824;9.562;2023-04-25T09:56:10;5.80;;;1.70;;
12425;SDS011;6277;49.824;9.562;2023-04-25T09:58:38;3.38;;;1.90;;
12425;SDS011;6277;49.824;9.562;2023-04-25T10:01:09;2.75;;;1.55;;
12425;SDS011;6277;49.824;9.562;2023-04-25T10:03:39;2.53;;;1.70;;
12425;SDS011;6277;49.824;9.562;2023-04-25T10:06:09;4.40;;;1.80;;
12425;SDS011;6277;49.824;9.562;2023-04-25T10:08:43;2.95;;;1.88;;
12425;SDS011;6277;49.824;9.562;2023-04-25T10:11:09;2.88;;;1.80;;
12425;SDS011;6277;49.824;9.562;2023-04-25T10:13:36;3.65;;;1.42;;
12425;SDS011;6277;49.824;9.562;2023-04-25T10:16:02;3.42;;;1.73;;
12425;SDS011;6277;49.824;9.562;2023-04-25T10:18:29;2.55;;;1.27;;
12425;SDS011;6277;49.824;9.562;2023-04-25T10:21:01;2.55;;;1.65;;
12425;SDS011;6277;49.824;9.562;2023-04-25T10:23:30;3.17;;;1.60;;
12425;SDS011;6277;49.824;9.562;2023-04-25T10:25:57;3.72;;;1.80;;
12425;SDS011;6277;49.824;9.562;2023-04-25T10:28:23;3.20;;;1.45;;
12425;SDS011;6277;49.824;9.562;2023-04-25T10:31:07;2.45;;;1.60;;
12425;SDS011;6277;49.824;9.562;2023-04-25T10:33:36;1.83;;;1.35;;
12425;SDS011;6277;49.824;9.562;2023-04-25T10:36:10;2.00;;;1.33;;
12425;SDS011;6277;49.824;9.562;2023-04-25T10:38:39;3.63;;;1.50;;
12425;SDS011;6277;49.824;9.562;2023-04-25T10:41:08;3.22;;;1.60;;
12425;SDS011;6277;49.824;9.562;2023-04-25T10:43:35;1.73;;;1.25;;
12425;SDS011;6277;49.824;9.562;2023-04-25T10:46:02;2.78;;;1.60;;
12425;SDS011;6277;49.824;9.562;2023-04-25T10:48:38;3.65;;;1.60;;
12425;SDS011;6277;49.824;9.562;2023-04-25T10:51:20;2.38;;;1.33;;
12425;SDS011;6277;49.824;9.562;2023-04-25T10:56:20;2.83;;;1.50;;
12425;SDS011;6277;49.824;9.562;2023-04-25T10:58:47;2.95;;;1.70;;
12425;SDS011;6277;49.824;9.562;2023-04-25T11:01:14;2.47;;;1.52;;
12425;SDS011;6277;49.824;9.562;2023-04-25T11:03:44;3.20;;;1.73;;
12425;SDS011;6277;49.824;9.562;2023-04-25T11:06:22;2.92;;;1.70;;
12425;SDS011;6277;49.824;9.562;2023-04-25T11:08:54;3.33;;;1.65;;
12425;SDS011;6277;49.824;9.562;2023-04-25T11:11:20;3.17;;;1.50;;
12425;SDS011;6277;49.824;9.562;2023-04-25T11:13:49;2.30;;;1.48;;
12425;SDS011;6277;49.824;9.562;2023-04-25T11:16:15;3.17;;;1.67;;
12425;SDS011;6277;49.824;9.562;2023-04-25T11:18:42;3.65;;;1.70;;
12425;SDS011;6277;49.824;9.562;2023-04-25T11:21:09;3.13;;;1.92;;
12425;SDS011;6277;49.824;9.562;2023-04-25T11:23:35;2.63;;;1.65;;
12425;SDS011;6277;49.824;9.562;2023-04-25T11:26:02;2.65;;;1.75;;
12425;SDS011;6277;49.824;9.562;2023-04-25T11:28:28;2.83;;;1.77;;
12425;SDS011;6277;49.824;9.562;2023-04-25T11:30:54;2.55;;;1.67;;
12425;SDS011;6277;49.824;9.562;2023-04-25T11:33:24;2.67;;;1.60;;
12425;SDS011;6277;49.824;9.562;2023-04-25T11:35:50;3.72;;;2.08;;
12425;SDS011;6277;49.824;9.562;2023-04-25T11:38:19;3.28;;;1.40;;
12425;SDS011;6277;49.824;9.562;2023-04-25T11:40:49;3.20;;;1.58;;
12425;SDS011;6277;49.824;9.562;2023-04-25T11:43:15;4.15;;;1.65;;
12425;SDS011;6277;49.824;9.562;2023-04-25T11:45:45;2.40;;;1.48;;
12425;SDS011;6277;49.824;9.562;2023-04-25T11:48:11;2.25;;;1.48;;
12425;SDS011;6277;49.824;9.562;2023-04-25T11:50:38;2.80;;;1.63;;
12425;SDS011;6277;49.824;9.562;2023-04-25T11:53:04;2.45;;;1.58;;
12425;SDS011;6277;49.824;9.562;2023-04-25T11:55:31;2.83;;;1.40;;
12425;SDS011;6277;49.824;9.562;2023-04-25T11:57:59;3.63;;;1.80;;
12425;SDS011;6277;49.824;9.562;2023-04-25T12:00:25;2.90;;;1.60;;
12425;SDS011;6277;49.824;9.562;2023-04-25T12:02:52;1.75;;;1.45;;
12425;SDS011;6277;49.824;9.562;2023-04-25T12:05:19;2.88;;;1.35;;
12425;SDS011;6277;49.824;9.562;2023-04-25T12:07:45;2.67;;;1.40;;
12425;SDS011;6277;49.824;9.562;2023-04-25T12:10:11;3.83;;;2.17;;
12425;SDS011;6277;49.824;9.562;2023-04-25T12:12:42;4.05;;;2.00;;
12425;SDS011;6277;49.824;9.562;2023-04-25T12:15:25;2.10;;;1.85;;
12425;SDS011;6277;49.824;9.562;2023-04-25T12:17:51;3.42;;;1.83;;
12425;SDS011;6277;49.824;9.562;2023-04-25T12:20:20;3.50;;;1.88;;
12425;SDS011;6277;49.824;9.562;2023-04-25T12:22:48;3.38;;;1.85;;
12425;SDS011;6277;49.824;9.562;2023-04-25T12:25:36;2.20;;;1.83;;
12425;SDS011;6277;49.824;9.562;2023-04-25T12:31:00;2.38;;;1.52;;
12425;SDS011;6277;49.824;9.562;2023-04-25T12:33:26;3.38;;;2.10;;
12425;SDS011;6277;49.824;9.562;2023-04-25T12:35:53;3.67;;;1.90;;
12425;SDS011;6277;49.824;9.562;2023-04-25T12:40:52;4.20;;;2.42;;
12425;SDS011;6277;49.824;9.562;2023-04-25T12:43:18;2.35;;;1.80;;
12425;SDS011;6277;49.824;9.562;2023-04-25T12:45:44;2.75;;;1.80;;
12425;SDS011;6277;49.824;9.562;2023-04-25T12:48:10;2.80;;;1.98;;
12425;SDS011;6277;49.824;9.562;2023-04-25T12:50:36;2.78;;;2.22;;
12425;SDS011;6277;49.824;9.562;2023-04-25T12:53:01;2.55;;;2.08;;
12425;SDS011;6277;49.824;9.562;2023-04-25T12:55:26;5.35;;;2.33;;
12425;SDS011;6277;49.824;9.562;2023-04-25T12:57:52;2.33;;;1.83;;
12425;SDS011;6277;49.824;9.562;2023-04-25T13:00:18;2.92;;;1.80;;
12425;SDS011;6277;49.824;9.562;2023-04-25T13:02:44;2.83;;;1.80;;
12425;SDS011;6277;49.824;9.562;2023-04-25T13:05:11;2.75;;;1.85;;
12425;SDS011;6277;49.824;9.562;2023-04-25T13:07:37;2.47;;;1.73;;
12425;SDS011;6277;49.824;9.562;2023-04-25T13:10:03;3.38;;;2.10;;
12425;SDS011;6277;49.824;9.562;2023-04-25T13:12:30;3.78;;;1.75;;
12425;SDS011;6277;49.824;9.562;2023-04-25T13:14:56;3.17;;;1.92;;
12425;SDS011;6277;49.824;9.562;2023-04-25T13:17:22;3.13;;;2.03;;
12425;SDS011;6277;49.824;9.562;2023-04-25T13:19:47;2.95;;;1.48;;
12425;SDS011;6277;49.824;9.562;2023-04-25T13:22:13;2.83;;;1.55;;
12425;SDS011;6277;49.824;9.562;2023-04-25T13:24:40;2.42;;;1.52;;
12425;SDS011;6277;49.824;9.562;2023-04-25T13:27:05;2.60;;;1.63;;
12425;SDS011;6277;49.824;9.562;2023-04-25T13:29:31;2.47;;;1.52;;
12425;SDS011;6277;49.824;9.562;2023-04-25T13:31:59;2.80;;;1.45;;
12425;SDS011;6277;49.824;9.562;2023-04-25T13:34:25;2.25;;;1.45;;
12425;SDS011;6277;49.824;9.562;2023-04-25T13:36:51;3.20;;;1.77;;
12425;SDS011;6277;49.824;9.562;2023-04-25T13:39:17;4.43;;;1.70;;
12425;SDS011;6277;49.824;9.562;2023-04-25T13:41:42;2.65;;;1.65;;
12425;SDS011;6277;49.824;9.562;2023-04-25T13:44:08;3.05;;;1.50;;
12425;SDS011;6277;49.824;9.562;2023-04-25T13:46:33;1.67;;;1.20;;
12425;SDS011;6277;49.824;9.562;2023-04-25T13:48:59;2.72;;;1.50;;
12425;SDS011;6277;49.824;9.562;2023-04-25T13:51:26;2.83;;;1.52;;
12425;SDS011;6277;49.824;9.562;2023-04-25T13:53:51;2.22;;;1.35;;
12425;SDS011;6277;49.824;9.562;2023-04-25T13:56:17;1.77;;;1.30;;
12425;SDS011;6277;49.824;9.562;2023-04-25T13:58:44;2.55;;;1.25;;
12425;SDS011;6277;49.824;9.562;2023-04-25T14:01:10;1.65;;;1.10;;
12425;SDS011;6277;49.824;9.562;2023-04-25T14:03:35;2.40;;;1.30;;
12425;SDS011;6277;49.824;9.562;2023-04-25T14:06:01;2.15;;;1.40;;
12425;SDS011;6277;49.824;9.562;2023-04-25T14:08:26;3.15;;;1.55;;
12425;SDS011;6277;49.824;9.562;2023-04-25T14:10:53;2.17;;;1.20;;
12425;SDS011;6277;49.824;9.562;2023-04-25T14:13:19;1.77;;;1.20;;
12425;SDS011;6277;49.824;9.562;2023-04-25T14:15:45;3.28;;;1.40;;
12425;SDS011;6277;49.824;9.562;2023-04-25T14:18:11;1.65;;;1.17;;
12425;SDS011;6277;49.824;9.562;2023-04-25T14:20:36;3.03;;;1.23;;
12425;SDS011;6277;49.824;9.562;2023-04-25T14:23:02;2.25;;;1.23;;
12425;SDS011;6277;49.824;9.562;2023-04-25T14:25:27;2.63;;;1.15;;
12425;SDS011;6277;49.824;9.562;2023-04-25T14:27:54;2.13;;;1.02;;
12425;SDS011;6277;49.824;9.562;2023-04-25T14:30:20;2.25;;;1.10;;
12425;SDS011;6277;49.824;9.562;2023-04-25T14:32:47;3.60;;;1.20;;
12425;SDS011;6277;49.824;9.562;2023-04-25T14:35:13;2.50;;;0.80;;
12425;SDS011;6277;49.824;9.562;2023-04-25T14:37:39;3.15;;;1.30;;
12425;SDS011;6277;49.824;9.562;2023-04-25T14:40:05;3.53;;;1.58;;
12425;SDS011;6277;49.824;9.562;2023-04-25T14:42:33;5.43;;;1.40;;
12425;SDS011;6277;49.824;9.562;2023-04-25T14:44:59;2.60;;;1.27;;
12425;SDS011;6277;49.824;9.562;2023-04-25T14:47:24;4.13;;;1.38;;
12425;SDS011;6277;49.824;9.562;2023-04-25T14:49:50;3.58;;;1.35;;
12425;SDS011;6277;49.824;9.562;2023-04-25T14:52:19;1.85;;;1.20;;
12425;SDS011;6277;49.824;9.562;2023-04-25T14:54:45;2.25;;;1.15;;
12425;SDS011;6277;49.824;9.562;2023-04-25T14:57:11;3.45;;;1.25;;
12425;SDS011;6277;49.824;9.562;2023-04-25T14:59:37;2.17;;;1.15;;
12425;SDS011;6277;49.824;9.562;2023-04-25T15:02:02;3.20;;;1.15;;
12425;SDS011;6277;49.824;9.562;2023-04-25T15:04:28;2.30;;;1.10;;
12425;SDS011;6277;49.824;9.562;2023-04-25T15:06:53;4.25;;;1.20;;
12425;SDS011;6277;49.824;9.562;2023-04-25T15:09:19;3.00;;;0.98;;